Time;durP1;ratioP1;P1;durP2;ratioP2;P2;SDS_P1;SDS_P2;PMS_P1;PMS_P2;Temp;Humidity;BMP_temperature;BMP_pressure;BME280_temperature;BME280_humidity;BME280_pressure;Samples;Min_cycle;Max_cycle;Signal;HPM_P1;HPM_P2
2022/04/17 00:01:02;;;;;;;10.40;7.38;;;11.00;98.00;;;;;;5049971;28;20544;-57
2022/04/17 00:03:30;;;;;;;9.25;6.70;;;11.10;97.70;;;;;;5049957;28;20028;-57
2022/04/17 00:05:56;;;;;;;11.55;7.10;;;10.90;97.80;;;;;;5049720;28;20067;-57
2022/04/17 00:08:22;;;;;;;11.27;7.15;;;10.70;98.30;;;;;;5050438;28;20060;-57
2022/04/17 00:10:48;;;;;;;13.52;6.95;;;10.70;98.70;;;;;;5049917;28;20029;-57
2022/04/17 00:13:14;;;;;;;10.13;7.40;;;10.60;98.60;;;;;;5050252;28;20048;-57
2022/04/17 00:15:40;;;;;;;11.23;6.88;;;10.50;98.80;;;;;;5048675;28;20501;-57
2022/04/17 00:18:06;;;;;;;8.20;6.90;;;10.40;98.90;;;;;;5049884;28;20044;-57
2022/04/17 00:20:32;;;;;;;9.38;7.25;;;10.30;99.30;;;;;;5050320;28;20025;-58
2022/04/17 00:22:58;;;;;;;8.70;6.70;;;10.20;99.50;;;;;;5049968;28;20434;-58
2022/04/17 00:25:23;;;;;;;10.02;7.18;;;10.20;99.70;;;;;;5050195;28;20021;-58
2022/04/17 00:27:49;;;;;;;9.70;7.18;;;10.10;99.90;;;;;;5049926;28;20490;-58
2022/04/17 00:30:15;;;;;;;11.52;6.75;;;10.10;99.90;;;;;;5048338;28;20029;-57
2022/04/17 00:32:40;;;;;;;8.57;6.53;;;10.20;99.90;;;;;;5049643;28;20048;-58
2022/04/17 00:35:08;;;;;;;11.40;7.00;;;10.20;99.90;;;;;;5049502;28;20056;-58
2022/04/17 00:37:34;;;;;;;10.02;7.15;;;10.00;99.90;;;;;;5049829;28;20092;-58
2022/04/17 00:40:00;;;;;;;11.00;6.68;;;10.00;99.90;;;;;;5050018;28;20078;-57
2022/04/17 00:42:25;;;;;;;9.55;6.03;;;9.90;99.90;;;;;;5050245;28;20024;-57
2022/04/17 00:44:51;;;;;;;9.07;6.68;;;10.10;99.40;;;;;;5049880;28;20033;-57
2022/04/17 00:47:16;;;;;;;9.60;6.53;;;10.20;99.70;;;;;;5050020;28;20021;-58
2022/04/17 00:49:43;;;;;;;10.77;6.63;;;10.20;99.20;;;;;;5049649;28;20025;-57
2022/04/17 00:52:09;;;;;;;8.15;6.28;;;10.20;99.30;;;;;;5049483;28;20768;-58
2022/04/17 00:54:37;;;;;;;12.20;6.60;;;10.20;99.70;;;;;;5049361;28;20029;-58
2022/04/17 00:57:04;;;;;;;12.05;6.40;;;10.10;99.60;;;;;;5049382;28;20017;-58
2022/04/17 00:59:30;;;;;;;11.27;6.97;;;9.90;99.90;;;;;;5049127;28;20033;-57
2022/04/17 01:01:56;;;;;;;10.38;6.72;;;9.90;99.90;;;;;;5049770;28;20021;-57
2022/04/17 01:04:21;;;;;;;8.45;6.45;;;9.90;99.90;;;;;;5049554;28;20021;-57
2022/04/17 01:06:47;;;;;;;10.13;6.72;;;9.90;99.90;;;;;;5049690;28;20032;-57
2022/04/17 01:09:14;;;;;;;9.23;6.30;;;9.90;99.90;;;;;;5049373;28;20036;-57
2022/04/17 01:11:39;;;;;;;10.80;6.65;;;9.90;99.90;;;;;;5052592;28;20021;-57
2022/04/17 01:14:07;;;;;;;7.00;6.30;;;9.70;99.90;;;;;;5053489;28;20025;-57
2022/04/17 01:16:34;;;;;;;9.93;7.57;;;9.60;99.90;;;;;;5051827;28;20055;-57
2022/04/17 01:19:03;;;;;;;9.50;6.82;;;9.40;99.90;;;;;;5051390;28;20021;-57
2022/04/17 01:21:33;;;;;;;12.40;7.93;;;9.30;99.90;;;;;;5052773;28;20032;-57
2022/04/17 01:26:58;;;;;;;10.73;7.38;;;9.40;99.90;;;;;;5053051;28;20273;-57
2022/04/17 01:29:25;;;;;;;10.48;7.38;;;9.40;99.90;;;;;;5052572;28;20021;-57
2022/04/17 01:31:52;;;;;;;10.43;7.60;;;9.30;99.90;;;;;;5052871;28;20151;-57
2022/04/17 01:34:19;;;;;;;10.43;7.38;;;9.10;99.90;;;;;;5052919;28;20115;-57
2022/04/17 01:36:45;;;;;;;11.02;7.65;;;8.90;99.90;;;;;;5051505;28;20025;-57
2022/04/17 01:39:12;;;;;;;10.45;7.18;;;9.00;99.90;;;;;;5052633;28;20017;-57
2022/04/17 01:41:38;;;;;;;10.45;7.60;;;9.00;99.90;;;;;;5052569;28;20028;-56
2022/04/17 01:44:05;;;;;;;10.63;7.65;;;8.90;99.90;;;;;;5052786;28;20425;-57
2022/04/17 01:46:30;;;;;;;11.55;7.90;;;8.80;99.90;;;;;;5052096;28;20041;-57
2022/04/17 01:48:56;;;;;;;12.73;8.05;;;8.70;99.90;;;;;;5052571;28;20378;-57
2022/04/17 01:51:22;;;;;;;14.00;7.97;;;8.60;99.90;;;;;;5052662;28;20421;-57
2022/04/17 01:53:49;;;;;;;12.43;7.40;;;8.60;99.90;;;;;;5053088;28;20545;-57
2022/04/17 01:56:15;;;;;;;12.07;8.23;;;8.50;99.90;;;;;;5052536;28;20025;-57
2022/04/17 01:58:40;;;;;;;16.42;8.25;;;8.40;99.90;;;;;;5052521;28;20063;-57
2022/04/17 02:01:06;;;;;;;11.07;7.95;;;8.30;99.90;;;;;;5052424;28;20511;-57
2022/04/17 02:03:32;;;;;;;11.60;8.07;;;8.30;99.90;;;;;;5052670;28;20021;-57
2022/04/17 02:05:57;;;;;;;12.73;8.40;;;8.40;99.90;;;;;;5052363;28;20025;-57
2022/04/17 02:08:24;;;;;;;11.50;7.45;;;8.40;99.90;;;;;;5052304;28;20040;-57
2022/04/17 02:10:49;;;;;;;11.38;7.28;;;8.50;99.90;;;;;;5052727;28;20028;-58
2022/04/17 02:13:15;;;;;;;10.35;7.07;;;8.40;99.90;;;;;;5051803;28;20033;-57
2022/04/17 02:15:41;;;;;;;10.00;7.35;;;8.30;99.90;;;;;;5052055;28;20432;-57
2022/04/17 02:18:07;;;;;;;8.90;7.18;;;8.30;99.90;;;;;;5033946;28;20025;-57
2022/04/17 02:20:32;;;;;;;12.95;7.80;;;8.20;99.90;;;;;;5051720;28;20125;-57
2022/04/17 02:22:58;;;;;;;10.23;7.47;;;8.20;99.90;;;;;;5052127;28;20024;-57
2022/04/17 02:25:23;;;;;;;9.38;7.38;;;8.10;99.90;;;;;;5052368;28;20025;-57
2022/04/17 02:27:49;;;;;;;13.32;7.32;;;8.10;99.90;;;;;;5051426;28;20370;-57
2022/04/17 02:30:14;;;;;;;13.65;7.57;;;8.00;99.90;;;;;;5051890;28;20029;-57
2022/04/17 02:32:40;;;;;;;9.73;6.53;;;7.90;99.90;;;;;;5051478;28;20136;-57
2022/04/17 02:35:06;;;;;;;12.43;7.93;;;7.90;99.90;;;;;;5051219;28;20048;-57
2022/04/17 02:37:35;;;;;;;11.77;7.88;;;7.90;99.90;;;;;;5051783;28;20071;-57
2022/04/17 02:40:01;;;;;;;10.05;7.38;;;7.90;99.90;;;;;;5051733;28;20024;-58
2022/04/17 02:42:27;;;;;;;10.88;7.63;;;7.80;99.90;;;;;;5051770;28;20023;-57
2022/04/17 02:44:53;;;;;;;13.00;8.02;;;7.70;99.90;;;;;;5051091;28;20116;-57
2022/04/17 02:50:04;;;;;;;10.23;7.75;;;7.80;99.90;;;;;;5051521;28;20084;-57
2022/04/17 02:52:30;;;;;;;10.65;7.53;;;7.90;99.90;;;;;;5051748;28;20037;-57
2022/04/17 02:54:55;;;;;;;12.00;7.90;;;8.00;99.90;;;;;;5049827;28;20025;-57
2022/04/17 02:57:21;;;;;;;10.30;7.45;;;8.20;99.90;;;;;;5049583;28;20021;-57
2022/04/17 02:59:47;;;;;;;10.25;6.90;;;8.20;99.90;;;;;;5049998;28;20036;-57
2022/04/17 03:07:41;;;;;;;10.43;6.63;;;8.20;99.90;;;;;;5050803;28;20097;-57
2022/04/17 03:10:07;;;;;;;9.57;6.63;;;8.60;99.90;;;;;;5051307;28;20375;-55
2022/04/17 03:12:36;;;;;;;12.20;7.30;;;8.80;99.90;;;;;;5051387;28;20036;-56
2022/04/17 03:15:02;;;;;;;12.63;7.57;;;8.80;99.90;;;;;;5051051;28;20048;-56
2022/04/17 03:17:28;;;;;;;8.40;6.40;;;8.70;99.90;;;;;;5050604;28;20040;-56
2022/04/17 03:19:54;;;;;;;10.93;6.60;;;8.60;99.90;;;;;;5050672;28;20017;-56
2022/04/17 03:22:24;;;;;;;10.57;6.80;;;8.50;99.90;;;;;;5049433;28;20104;-56
2022/04/17 03:24:50;;;;;;;12.75;7.25;;;8.40;99.90;;;;;;5050362;28;20092;-56
2022/04/17 03:27:16;;;;;;;10.32;6.35;;;8.40;99.90;;;;;;5050488;28;20087;-56
2022/04/17 03:29:41;;;;;;;10.63;7.57;;;8.40;99.90;;;;;;5050469;28;20078;-56
2022/04/17 03:32:07;;;;;;;8.43;6.50;;;8.50;99.90;;;;;;5048946;28;20482;-57
2022/04/17 03:34:33;;;;;;;8.82;6.60;;;8.50;99.90;;;;;;5048592;28;20449;-57
2022/04/17 03:36:58;;;;;;;11.07;6.35;;;8.40;99.90;;;;;;5050363;28;20107;-57
2022/04/17 03:39:25;;;;;;;9.35;6.28;;;8.20;99.90;;;;;;5050484;28;20028;-57
2022/04/17 03:41:54;;;;;;;10.35;6.82;;;8.00;99.90;;;;;;5050409;28;20028;-57
2022/04/17 03:44:20;;;;;;;9.60;6.63;;;7.90;99.90;;;;;;5050513;28;20025;-57
2022/04/17 03:46:47;;;;;;;10.18;6.55;;;7.90;99.90;;;;;;5050480;28;20036;-57
2022/04/17 03:49:13;;;;;;;9.38;6.68;;;7.90;99.90;;;;;;5049993;28;20091;-57
2022/04/17 03:51:39;;;;;;;10.60;6.97;;;7.80;99.90;;;;;;5050175;28;20556;-57
2022/04/17 03:54:04;;;;;;;9.02;6.70;;;7.50;99.90;;;;;;5049056;28;20029;-57
2022/04/17 03:56:30;;;;;;;9.02;6.80;;;7.40;99.90;;;;;;5050162;28;20108;-57
2022/04/17 03:58:56;;;;;;;8.98;6.68;;;7.20;99.90;;;;;;5050477;28;20512;-57
2022/04/17 04:01:21;;;;;;;8.27;6.65;;;7.20;99.90;;;;;;5050372;28;20092;-57
2022/04/17 04:03:47;;;;;;;9.07;6.63;;;7.10;99.90;;;;;;5050196;28;20424;-57
2022/04/17 04:06:13;;;;;;;8.05;6.47;;;7.10;99.90;;;;;;5050046;28;20048;-57
2022/04/17 04:08:39;;;;;;;9.55;6.53;;;7.10;99.90;;;;;;5049562;28;20060;-57
2022/04/17 04:11:05;;;;;;;10.23;6.93;;;7.10;99.90;;;;;;5050554;28;20438;-57
2022/04/17 04:13:32;;;;;;;12.23;6.80;;;7.10;99.90;;;;;;5049938;28;20022;-57
2022/04/17 04:15:58;;;;;;;8.23;6.53;;;7.00;99.90;;;;;;5048947;28;20454;-57
2022/04/17 04:18:24;;;;;;;10.27;6.43;;;6.90;99.90;;;;;;5050256;28;20098;-57
2022/04/17 04:20:49;;;;;;;9.27;6.40;;;6.80;99.90;;;;;;5050197;28;20017;-57
2022/04/17 04:23:16;;;;;;;8.40;6.15;;;6.80;99.90;;;;;;5050298;28;20025;-57
2022/04/17 04:25:41;;;;;;;10.73;6.20;;;6.60;99.90;;;;;;5050143;28;20044;-57
2022/04/17 04:30:52;;;;;;;8.00;5.43;;;6.50;99.90;;;;;;5050706;28;20032;-57
2022/04/17 04:33:17;;;;;;;8.63;5.55;;;6.40;99.90;;;;;;5050616;28;20079;-57
2022/04/17 04:35:43;;;;;;;7.75;5.38;;;6.40;99.90;;;;;;5050408;28;20025;-57
2022/04/17 04:38:09;;;;;;;8.73;5.82;;;6.50;99.90;;;;;;5050223;28;20031;-57
2022/04/17 04:40:34;;;;;;;9.85;5.70;;;6.60;99.90;;;;;;5049982;28;20013;-57
2022/04/17 04:43:02;;;;;;;9.13;5.68;;;6.50;99.90;;;;;;5049739;28;20033;-57
2022/04/17 04:48:13;;;;;;;9.98;5.75;;;6.50;99.90;;;;;;5054208;28;20071;-57
2022/04/17 04:50:39;;;;;;;8.80;5.60;;;6.50;99.90;;;;;;5053722;28;20081;-57
2022/04/17 04:53:04;;;;;;;10.93;5.70;;;6.50;99.90;;;;;;5052443;28;20045;-57
2022/04/17 04:55:30;;;;;;;10.48;5.60;;;6.70;99.90;;;;;;5053718;28;20510;-57
2022/04/17 04:57:56;;;;;;;9.02;5.70;;;6.70;99.90;;;;;;5053443;28;20013;-57
2022/04/17 05:00:22;;;;;;;8.30;5.60;;;6.70;99.90;;;;;;5053206;28;20029;-57
2022/04/17 05:02:47;;;;;;;8.25;5.32;;;6.60;99.90;;;;;;5053556;28;20171;-57
2022/04/17 05:05:13;;;;;;;10.25;5.32;;;6.50;99.90;;;;;;5053476;28;20036;-57
2022/04/17 05:07:39;;;;;;;7.00;4.97;;;6.40;99.90;;;;;;5053662;28;20028;-57
2022/04/17 05:10:07;;;;;;;7.18;5.20;;;6.50;99.90;;;;;;5053643;28;20393;-57
2022/04/17 05:12:37;;;;;;;6.47;4.53;;;6.50;99.90;;;;;;5053245;28;20103;-57
2022/04/17 05:15:03;;;;;;;6.78;4.70;;;6.60;99.90;;;;;;5052002;28;20032;-57
2022/04/17 05:17:29;;;;;;;5.50;4.43;;;6.60;99.90;;;;;;5053313;28;20033;-57
2022/04/17 05:19:55;;;;;;;6.75;4.22;;;6.60;99.90;;;;;;5053209;28;20028;-57
2022/04/17 05:22:22;;;;;;;6.05;4.60;;;6.60;99.90;;;;;;5053423;28;20025;-57
2022/04/17 05:24:47;;;;;;;8.32;3.90;;;6.60;99.90;;;;;;5052905;28;20091;-57
2022/04/17 05:27:13;;;;;;;7.57;5.15;;;6.60;99.90;;;;;;5053269;28;20033;-57
2022/04/17 05:29:40;;;;;;;7.22;4.53;;;6.70;99.90;;;;;;5053284;28;20059;-57
2022/04/17 05:32:06;;;;;;;7.25;4.50;;;6.80;99.90;;;;;;5052952;28;20501;-57
2022/04/17 05:34:32;;;;;;;7.85;4.22;;;7.00;99.90;;;;;;5051725;28;20053;-57
2022/04/17 05:36:58;;;;;;;6.22;4.45;;;7.20;99.90;;;;;;5052739;28;20026;-57
2022/04/17 05:39:23;;;;;;;6.57;4.28;;;7.30;99.90;;;;;;5052436;28;20025;-57
2022/04/17 05:41:50;;;;;;;10.05;4.35;;;7.40;99.90;;;;;;5052580;28;20367;-57
2022/04/17 05:44:16;;;;;;;6.82;4.47;;;7.40;99.90;;;;;;5053444;28;20025;-57
2022/04/17 05:46:42;;;;;;;4.45;3.58;;;7.40;99.90;;;;;;5052206;28;20025;-57
2022/04/17 05:49:08;;;;;;;4.72;3.70;;;7.60;99.90;;;;;;5053019;28;20379;-57
2022/04/17 05:51:39;;;;;;;4.80;3.03;;;7.80;99.90;;;;;;5052314;28;20024;-57
2022/04/17 05:54:05;;;;;;;4.65;3.30;;;8.10;98.10;;;;;;5052841;28;20434;-57
2022/04/17 05:56:32;;;;;;;3.97;3.08;;;8.20;97.60;;;;;;5051054;28;20062;-57
2022/04/17 05:58:57;;;;;;;4.43;2.83;;;8.40;96.00;;;;;;5051943;28;20099;-57
2022/04/17 06:01:24;;;;;;;6.07;3.15;;;8.50;95.70;;;;;;5050948;28;20662;-57
2022/04/17 06:03:50;;;;;;;3.72;2.72;;;8.60;95.30;;;;;;5052232;28;20107;-57
2022/04/17 06:06:18;;;;;;;4.35;2.58;;;8.60;94.60;;;;;;5052236;28;20040;-57
2022/04/17 06:08:44;;;;;;;3.75;2.50;;;8.70;94.50;;;;;;5051946;28;20309;-57
2022/04/17 06:11:10;;;;;;;5.13;2.90;;;8.70;94.10;;;;;;5052314;28;20580;-57
2022/04/17 06:13:35;;;;;;;5.60;2.80;;;8.80;94.40;;;;;;5052251;28;20043;-57
2022/04/17 06:16:01;;;;;;;3.15;2.83;;;8.80;94.30;;;;;;5052998;28;20032;-57
2022/04/17 06:18:26;;;;;;;5.25;2.95;;;9.00;93.90;;;;;;5051768;28;20060;-57
2022/04/17 06:20:52;;;;;;;3.72;2.50;;;9.10;93.50;;;;;;5051715;28;20021;-57
2022/04/17 06:23:17;;;;;;;4.97;3.17;;;9.10;94.20;;;;;;5051942;28;20036;-57
2022/04/17 06:25:43;;;;;;;4.47;3.05;;;9.10;94.20;;;;;;5051564;28;20386;-57
2022/04/17 06:28:09;;;;;;;3.60;2.60;;;9.20;93.70;;;;;;5051917;28;20421;-57
2022/04/17 06:30:35;;;;;;;5.25;2.95;;;9.20;93.50;;;;;;5051584;28;20071;-57
2022/04/17 06:33:00;;;;;;;5.03;2.80;;;9.20;94.20;;;;;;5051723;28;20052;-57
2022/04/17 06:35:26;;;;;;;3.65;2.78;;;9.20;94.70;;;;;;5051766;28;20454;-57
2022/04/17 06:37:54;;;;;;;5.32;3.08;;;9.30;94.80;;;;;;5051596;28;20079;-57
2022/04/17 06:40:31;;;;;;;5.35;3.00;;;9.40;95.20;;;;;;5051726;28;20029;-57
2022/04/17 06:43:05;;;;;;;4.60;3.13;;;9.50;94.40;;;;;;5050367;28;20232;-57
2022/04/17 06:45:31;;;;;;;4.28;3.13;;;9.50;93.90;;;;;;5050031;28;20031;-57
2022/04/17 06:47:57;;;;;;;4.10;3.40;;;9.50;94.20;;;;;;5051389;28;20021;-57
2022/04/17 06:50:23;;;;;;;4.30;3.40;;;9.40;94.60;;;;;;5051408;28;20028;-57
2022/04/17 06:52:50;;;;;;;9.32;4.35;;;9.40;95.60;;;;;;5051445;28;20044;-57
2022/04/17 06:55:15;;;;;;;7.13;4.50;;;9.50;96.00;;;;;;5051127;28;20040;-57
2022/04/17 06:57:49;;;;;;;6.55;5.15;;;9.50;95.90;;;;;;5051172;28;20029;-57
2022/04/17 07:00:17;;;;;;;10.38;5.97;;;9.70;95.70;;;;;;5051328;28;20060;-57
2022/04/17 07:02:43;;;;;;;9.13;6.22;;;9.90;95.00;;;;;;5051459;28;20022;-57
2022/04/17 07:05:11;;;;;;;8.90;5.80;;;10.20;94.00;;;;;;5050673;28;20038;-57
2022/04/17 07:07:36;;;;;;;8.38;5.65;;;10.40;93.70;;;;;;5051064;28;20052;-57
2022/04/17 07:10:02;;;;;;;8.85;5.95;;;10.40;93.30;;;;;;5050918;28;20117;-57
2022/04/17 07:12:32;;;;;;;6.80;5.18;;;10.50;92.90;;;;;;5051222;28;20037;-57
2022/04/17 07:15:00;;;;;;;9.48;5.07;;;10.50;92.10;;;;;;5050926;28;20480;-57
2022/04/17 07:17:36;;;;;;;10.10;4.97;;;10.50;91.90;;;;;;5050718;28;20385;-57
2022/04/17 07:20:07;;;;;;;8.38;4.28;;;10.60;91.20;;;;;;5050395;28;20028;-57
2022/04/17 07:22:37;;;;;;;10.73;4.65;;;10.90;91.30;;;;;;5050536;28;20032;-57
2022/04/17 07:25:04;;;;;;;6.65;4.55;;;12.30;89.70;;;;;;5050144;28;20102;-57
2022/04/17 07:27:41;;;;;;;5.15;3.97;;;13.90;82.20;;;;;;5049982;28;20029;-57
2022/04/17 07:30:24;;;;;;;5.68;3.58;;;15.50;76.00;;;;;;5050544;28;20033;-57
2022/04/17 07:32:52;;;;;;;4.63;3.78;;;16.30;70.00;;;;;;5049895;28;20090;-57
2022/04/17 07:35:18;;;;;;;4.53;3.75;;;16.80;67.50;;;;;;5049834;28;20055;-57
2022/04/17 07:37:49;;;;;;;4.68;3.30;;;17.70;65.20;;;;;;5049925;28;20395;-57
2022/04/17 07:40:21;;;;;;;3.53;3.15;;;17.90;64.50;;;;;;5050459;28;20035;-58
2022/04/17 07:42:47;;;;;;;7.20;3.10;;;18.70;63.50;;;;;;5050582;28;20017;-58
2022/04/17 07:45:14;;;;;;;3.92;2.85;;;19.00;60.20;;;;;;5050482;28;20456;-58
2022/04/17 07:47:41;;;;;;;4.47;3.20;;;19.00;58.70;;;;;;5049955;28;20051;-57
2022/04/17 07:50:08;;;;;;;3.83;2.80;;;18.80;59.10;;;;;;5049918;28;20092;-57
2022/04/17 07:52:34;;;;;;;3.65;2.70;;;18.70;58.80;;;;;;5050222;28;20021;-57
2022/04/17 07:55:01;;;;;;;3.47;2.50;;;19.20;58.90;;;;;;5050308;28;20040;-58
2022/04/17 07:57:26;;;;;;;3.83;2.65;;;19.30;57.50;;;;;;5049888;28;20100;-57
2022/04/17 07:59:55;;;;;;;3.80;2.67;;;19.50;57.50;;;;;;5050149;28;20442;-58
2022/04/17 08:02:22;;;;;;;5.18;2.65;;;19.50;56.10;;;;;;5050448;28;20017;-57
2022/04/17 08:04:51;;;;;;;3.97;2.38;;;19.70;55.60;;;;;;5049639;28;20060;-57
2022/04/17 08:07:19;;;;;;;3.00;2.50;;;19.40;56.20;;;;;;5049914;28;20508;-57
2022/04/17 08:09:45;;;;;;;4.15;2.40;;;19.30;56.80;;;;;;5048211;28;20063;-58
2022/04/17 08:12:11;;;;;;;2.83;2.35;;;18.60;57.90;;;;;;5049881;28;20486;-58
2022/04/17 08:14:36;;;;;;;3.15;2.50;;;18.60;57.40;;;;;;5049819;28;20021;-58
2022/04/17 08:17:02;;;;;;;3.65;2.20;;;19.00;56.90;;;;;;5048654;28;20499;-58
2022/04/17 08:19:29;;;;;;;4.90;2.25;;;19.80;55.10;;;;;;5051379;28;20025;-57
2022/04/17 08:21:55;;;;;;;3.78;2.60;;;19.70;56.10;;;;;;5053929;28;20025;-57
2022/04/17 08:24:21;;;;;;;2.58;2.08;;;19.50;57.10;;;;;;5054182;28;20036;-59
2022/04/17 08:26:47;;;;;;;4.43;2.50;;;19.50;56.60;;;;;;5052622;28;20028;-57
2022/04/17 08:29:12;;;;;;;2.35;2.15;;;19.70;55.30;;;;;;5052331;28;20021;-58
2022/04/17 08:31:39;;;;;;;3.45;2.30;;;19.60;54.80;;;;;;5052404;28;20013;-58
2022/04/17 08:34:04;;;;;;;2.63;2.10;;;19.50;55.90;;;;;;5053268;28;20039;-58
2022/04/17 08:36:30;;;;;;;3.08;2.35;;;19.70;55.50;;;;;;5053417;28;20021;-57
2022/04/17 08:38:56;;;;;;;3.40;2.67;;;18.90;56.20;;;;;;5053742;28;20029;-58
2022/04/17 08:41:22;;;;;;;3.90;2.50;;;19.20;56.40;;;;;;5053400;28;20025;-58
2022/04/17 08:43:48;;;;;;;4.00;2.38;;;20.40;55.10;;;;;;5053831;28;20021;-58
2022/04/17 08:46:13;;;;;;;3.53;2.38;;;20.00;55.40;;;;;;5053719;28;20063;-58
2022/04/17 08:48:39;;;;;;;3.53;2.00;;;20.10;55.20;;;;;;5053472;28;20555;-58
2022/04/17 08:51:08;;;;;;;2.45;2.20;;;21.00;54.00;;;;;;5053346;28;20033;-59
2022/04/17 08:53:37;;;;;;;3.90;2.33;;;21.60;52.90;;;;;;5054602;28;20401;-59
2022/04/17 08:56:03;;;;;;;2.90;2.30;;;21.10;52.70;;;;;;5053361;28;20033;-59
2022/04/17 08:58:30;;;;;;;2.63;2.38;;;21.20;52.20;;;;;;5053702;28;20025;-59
2022/04/17 09:00:55;;;;;;;3.95;2.30;;;21.10;52.70;;;;;;5053353;28;20025;-59
2022/04/17 09:03:23;;;;;;;4.55;2.60;;;21.10;52.80;;;;;;5053603;28;20025;-59
2022/04/17 09:05:48;;;;;;;3.10;2.60;;;21.40;53.00;;;;;;5053263;28;20021;-60
2022/04/17 09:08:19;;;;;;;3.08;2.40;;;21.90;51.50;;;;;;5052829;28;20031;-59
2022/04/17 09:10:58;;;;;;;3.80;2.75;;;22.10;51.40;;;;;;5052917;28;20044;-59
2022/04/17 09:13:34;;;;;;;6.97;2.40;;;21.20;52.40;;;;;;5053278;28;20025;-59
2022/04/17 09:16:04;;;;;;;3.00;2.20;;;22.20;51.10;;;;;;5053730;28;20059;-59
2022/04/17 09:18:31;;;;;;;5.88;2.60;;;22.20;51.10;;;;;;5053031;28;20489;-58
2022/04/17 09:21:01;;;;;;;2.50;2.30;;;23.20;49.10;;;;;;5052670;28;20032;-58
2022/04/17 09:23:37;;;;;;;2.67;2.20;;;22.30;49.60;;;;;;5053149;28;20425;-58
2022/04/17 09:26:04;;;;;;;3.83;2.38;;;22.10;49.90;;;;;;5053093;28;20425;-58
2022/04/17 09:28:32;;;;;;;3.60;2.50;;;22.20;51.00;;;;;;5052716;28;20390;-58
2022/04/17 09:31:01;;;;;;;2.95;2.50;;;23.50;50.10;;;;;;5051461;28;20097;-58
2022/04/17 09:33:36;;;;;;;4.80;2.70;;;23.40;48.60;;;;;;5052839;28;20080;-59
2022/04/17 09:36:02;;;;;;;2.45;2.25;;;23.20;50.00;;;;;;5053127;28;20083;-58
2022/04/17 09:38:32;;;;;;;2.90;2.42;;;23.10;49.40;;;;;;5052532;28;20079;-58
2022/04/17 09:41:05;;;;;;;3.00;2.28;;;22.80;49.80;;;;;;5052191;28;20032;-58
2022/04/17 09:43:37;;;;;;;8.05;2.88;;;22.90;49.60;;;;;;5052471;28;20524;-58
2022/04/17 09:46:07;;;;;;;3.95;2.50;;;23.20;49.10;;;;;;5052374;28;20093;-58
2022/04/17 09:48:38;;;;;;;3.90;2.60;;;23.20;48.40;;;;;;5052431;28;20025;-58
2022/04/17 09:51:26;;;;;;;4.85;2.40;;;22.90;50.30;;;;;;5052197;28;20110;-59
2022/04/17 09:54:00;;;;;;;4.05;2.55;;;22.50;49.30;;;;;;5052489;28;20377;-58
2022/04/17 09:56:38;;;;;;;3.28;2.97;;;21.40;50.80;;;;;;5052392;28;20445;-59
2022/04/17 09:59:18;;;;;;;2.88;2.55;;;21.80;51.40;;;;;;5052039;28;20048;-59
2022/04/17 10:01:49;;;;;;;3.88;2.38;;;22.80;49.90;;;;;;5052116;28;20463;-59
2022/04/17 10:04:21;;;;;;;4.28;2.40;;;22.40;50.20;;;;;;5052078;28;20021;-58
2022/04/17 10:06:47;;;;;;;;;;;22.20;49.70;;;;;;5052554;28;20025;-58
2022/04/17 10:09:14;;;;;;;3.05;2.72;;;22.40;49.70;;;;;;5051846;28;19959;-58
2022/04/17 10:11:40;;;;;;;3.13;2.63;;;22.50;49.90;;;;;;5051863;28;20036;-58
2022/04/17 10:14:06;;;;;;;3.85;2.85;;;22.90;49.10;;;;;;5052131;28;20036;-58
2022/04/17 10:16:34;;;;;;;3.28;2.55;;;23.10;49.10;;;;;;5051826;28;20493;-58
2022/04/17 10:19:04;;;;;;;4.07;2.10;;;23.40;48.20;;;;;;5051995;28;20025;-58
2022/04/17 10:21:34;;;;;;;3.60;2.65;;;23.20;47.10;;;;;;5050560;28;20393;-58
2022/04/17 10:24:02;;;;;;;2.58;2.33;;;22.80;49.50;;;;;;5051924;28;20063;-58
2022/04/17 10:26:32;;;;;;;2.15;2.03;;;23.10;46.80;;;;;;5050502;28;20544;-58
2022/04/17 10:28:59;;;;;;;3.03;2.22;;;23.10;48.90;;;;;;5050501;28;20131;-58
2022/04/17 10:31:31;;;;;;;3.65;2.30;;;23.30;45.80;;;;;;5051724;28;20024;-59
2022/04/17 10:34:27;;;;;;;4.38;2.67;;;23.90;46.30;;;;;;5050631;28;20089;-59
2022/04/17 10:37:21;;;;;;;4.22;2.00;;;23.50;46.10;;;;;;5051808;28;20099;-59
2022/04/17 10:39:51;;;;;;;2.45;2.20;;;23.20;47.20;;;;;;5051580;28;20198;-59
2022/04/17 10:42:16;;;;;;;2.28;2.08;;;23.70;47.10;;;;;;5051361;28;20128;-59
2022/04/17 10:44:42;;;;;;;4.55;2.28;;;24.60;44.50;;;;;;5051417;28;20530;-59
2022/04/17 10:47:20;;;;;;;4.95;2.65;;;24.30;46.00;;;;;;5051413;28;20053;-60
2022/04/17 10:49:56;;;;;;;3.63;2.38;;;25.00;44.90;;;;;;5050822;28;20044;-59
2022/04/17 10:52:33;;;;;;;3.58;2.38;;;25.80;44.50;;;;;;5051150;28;20488;-60
2022/04/17 10:55:11;;;;;;;3.83;2.30;;;25.80;44.50;;;;;;5050980;28;20024;-60
2022/04/17 10:57:47;;;;;;;3.28;2.97;;;25.60;44.90;;;;;;5049752;28;20417;-59
2022/04/17 11:00:36;;;;;;;3.17;2.70;;;25.60;44.40;;;;;;5051195;28;20017;-59
2022/04/17 11:03:10;;;;;;;3.60;2.50;;;26.40;43.40;;;;;;5050784;28;20055;-60
2022/04/17 11:06:30;;;;;;;2.83;2.60;;;27.20;42.60;;;;;;5051118;28;20033;-59
2022/04/17 11:08:26;;;;;;;3.42;3.08;;;27.90;42.60;;;;;;5046840;28;20068;-60
2022/04/17 11:11:02;;;;;;;3.80;2.95;;;27.50;42.30;;;;;;5050898;28;20104;-59
2022/04/17 11:13:28;;;;;;;3.40;3.10;;;26.40;41.60;;;;;;5049283;28;20534;-59
2022/04/17 11:15:59;;;;;;;4.20;3.42;;;25.80;42.70;;;;;;5049407;28;20259;-60
2022/04/17 11:18:27;;;;;;;3.58;3.28;;;24.60;43.40;;;;;;5050458;28;20028;-58
2022/04/17 11:20:55;;;;;;;3.75;3.13;;;24.50;43.60;;;;;;5050633;28;20394;-59
2022/04/17 11:24:00;;;;;;;4.80;3.58;;;25.30;44.70;;;;;;5051070;28;20029;-59
2022/04/17 11:26:53;;;;;;;3.65;3.35;;;25.10;43.60;;;;;;5050708;28;20434;-60
2022/04/17 11:29:35;;;;;;;6.00;3.05;;;25.40;45.10;;;;;;5050272;28;20043;-59
2022/04/17 11:32:02;;;;;;;4.28;3.42;;;25.30;43.50;;;;;;5050015;28;20029;-60
2022/04/17 11:34:46;;;;;;;4.15;3.75;;;24.20;43.80;;;;;;5050780;28;20448;-60
2022/04/17 11:37:15;;;;;;;5.03;3.92;;;24.50;45.60;;;;;;5049019;28;20379;-60
2022/04/17 11:39:41;;;;;;;4.50;3.80;;;24.90;45.50;;;;;;5050713;28;20100;-59
2022/04/17 11:42:09;;;;;;;4.30;3.90;;;25.20;44.50;;;;;;5049217;28;20100;-59
2022/04/17 11:44:36;;;;;;;4.10;3.70;;;25.60;45.40;;;;;;5050479;28;20143;-60
2022/04/17 11:47:02;;;;;;;5.50;3.97;;;26.10;44.50;;;;;;5050341;28;20021;-60
2022/04/17 11:49:32;;;;;;;5.63;3.55;;;26.70;42.20;;;;;;5050404;28;20090;-59
2022/04/17 11:52:13;;;;;;;4.82;3.75;;;27.10;41.10;;;;;;5050054;28;20129;-59
2022/04/17 11:54:39;;;;;;;3.95;3.60;;;26.40;43.70;;;;;;5049514;28;20035;-58
2022/04/17 11:57:06;;;;;;;4.68;4.05;;;26.40;44.10;;;;;;5050352;28;20040;-60
2022/04/17 11:59:44;;;;;;;4.25;3.88;;;26.60;44.30;;;;;;5050299;28;20033;-60
2022/04/17 12:02:16;;;;;;;4.55;4.00;;;26.80;42.70;;;;;;5050409;28;20031;-59
2022/04/17 12:04:45;;;;;;;5.00;3.92;;;26.70;42.90;;;;;;5050326;28;20057;-59
2022/04/17 12:07:13;;;;;;;4.63;4.10;;;26.10;44.40;;;;;;5049894;28;20029;-59
2022/04/17 12:09:39;;;;;;;4.65;4.20;;;26.40;43.10;;;;;;5049954;28;20482;-59
2022/04/17 12:12:18;;;;;;;5.47;3.95;;;25.80;44.60;;;;;;5050403;28;20592;-59
2022/04/17 12:14:45;;;;;;;4.47;4.07;;;26.10;44.70;;;;;;5048654;28;20024;-59
2022/04/17 12:17:12;;;;;;;4.68;4.20;;;26.10;43.30;;;;;;5049673;28;20083;-59
2022/04/17 12:19:37;;;;;;;3.97;3.60;;;26.80;42.60;;;;;;5050394;28;20029;-59
2022/04/17 12:22:13;;;;;;;4.10;3.70;;;26.70;43.20;;;;;;5049899;28;20025;-59
2022/04/17 12:24:43;;;;;;;4.13;3.72;;;27.30;42.70;;;;;;5050095;28;20045;-60
2022/04/17 12:27:14;;;;;;;6.07;3.65;;;28.00;42.20;;;;;;5048523;28;20273;-60
2022/04/17 12:29:44;;;;;;;3.63;3.33;;;27.60;42.30;;;;;;5049647;28;20390;-60
2022/04/17 12:32:42;;;;;;;4.45;3.70;;;26.90;43.80;;;;;;5050062;28;20056;-59
2022/04/17 12:35:08;;;;;;;4.68;4.00;;;25.70;43.50;;;;;;5049814;28;20474;-59
2022/04/17 12:37:34;;;;;;;3.85;3.47;;;26.00;44.30;;;;;;5049793;28;20028;-59
2022/04/17 12:40:08;;;;;;;5.25;3.67;;;26.50;44.30;;;;;;5050217;28;20080;-59
2022/04/17 12:42:33;;;;;;;6.53;3.65;;;27.80;42.50;;;;;;5049866;28;20658;-59
2022/04/17 12:44:59;;;;;;;3.78;3.45;;;27.30;42.40;;;;;;5049935;28;20036;-59
2022/04/17 12:47:25;;;;;;;4.20;3.47;;;26.50;42.50;;;;;;5049904;28;20036;-59
2022/04/17 12:49:58;;;;;;;3.83;3.53;;;26.20;43.20;;;;;;5050312;28;20092;-59
2022/04/17 12:52:24;;;;;;;3.55;3.25;;;26.80;43.50;;;;;;5049942;28;20075;-59
2022/04/17 12:54:49;;;;;;;3.88;3.22;;;27.60;43.00;;;;;;5049570;28;20382;-59
2022/04/17 12:57:20;;;;;;;3.45;3.15;;;27.30;42.10;;;;;;5049838;28;20032;-59
2022/04/17 12:59:48;;;;;;;3.85;3.50;;;26.10;42.50;;;;;;5049688;28;20266;-59
2022/04/17 13:02:15;;;;;;;5.22;3.35;;;26.60;43.50;;;;;;5049830;28;20567;-59
2022/04/17 13:04:46;;;;;;;4.20;3.20;;;27.30;41.00;;;;;;5049822;28;20104;-59
2022/04/17 13:07:16;;;;;;;3.85;2.80;;;26.90;40.60;;;;;;5053202;28;20048;-59
2022/04/17 13:09:54;;;;;;;2.90;2.70;;;26.90;42.20;;;;;;5054341;28;20244;-59
2022/04/17 13:12:33;;;;;;;3.72;3.10;;;26.90;42.60;;;;;;5053204;28;20568;-59